sensor_id;sensor_type;location;lat;lon;timestamp;P1;durP1;ratioP1;P2;durP2;ratioP2
21438;SDS011;10880;50.302;18.736;2022-12-11T00:00:43;14.53;;;7.73;;
21438;SDS011;10880;50.302;18.736;2022-12-11T00:03:10;16.07;;;7.83;;
21438;SDS011;10880;50.302;18.736;2022-12-11T00:05:39;22.93;;;10.13;;
21438;SDS011;10880;50.302;18.736;2022-12-11T00:08:06;25.17;;;11.30;;
21438;SDS011;10880;50.302;18.736;2022-12-11T00:10:33;24.20;;;11.30;;
21438;SDS011;10880;50.302;18.736;2022-12-11T00:12:59;20.33;;;10.23;;
21438;SDS011;10880;50.302;18.736;2022-12-11T00:15:26;18.00;;;8.57;;
21438;SDS011;10880;50.302;18.736;2022-12-11T00:17:53;20.60;;;9.93;;
21438;SDS011;10880;50.302;18.736;2022-12-11T00:20:20;20.00;;;9.90;;
21438;SDS011;10880;50.302;18.736;2022-12-11T00:22:46;18.67;;;9.33;;
21438;SDS011;10880;50.302;18.736;2022-12-11T00:25:13;24.43;;;10.47;;
21438;SDS011;10880;50.302;18.736;2022-12-11T00:27:39;24.27;;;10.63;;
21438;SDS011;10880;50.302;18.736;2022-12-11T00:30:06;27.70;;;10.90;;
21438;SDS011;10880;50.302;18.736;2022-12-11T00:32:33;22.50;;;9.87;;
21438;SDS011;10880;50.302;18.736;2022-12-11T00:34:59;20.60;;;8.90;;
21438;SDS011;10880;50.302;18.736;2022-12-11T00:37:26;21.43;;;9.77;;
21438;SDS011;10880;50.302;18.736;2022-12-11T00:39:53;20.90;;;9.80;;
21438;SDS011;10880;50.302;18.736;2022-12-11T00:42:20;26.13;;;10.37;;
21438;SDS011;10880;50.302;18.736;2022-12-11T00:44:46;26.20;;;10.87;;
21438;SDS011;10880;50.302;18.736;2022-12-11T00:47:13;22.63;;;9.73;;
21438;SDS011;10880;50.302;18.736;2022-12-11T00:49:39;23.23;;;9.37;;
21438;SDS011;10880;50.302;18.736;2022-12-11T00:52:05;26.10;;;11.17;;
21438;SDS011;10880;50.302;18.736;2022-12-11T00:54:32;30.17;;;13.07;;
21438;SDS011;10880;50.302;18.736;2022-12-11T00:56:59;27.47;;;9.80;;
21438;SDS011;10880;50.302;18.736;2022-12-11T00:59:26;30.00;;;11.77;;
21438;SDS011;10880;50.302;18.736;2022-12-11T01:01:54;27.83;;;11.87;;
21438;SDS011;10880;50.302;18.736;2022-12-11T01:04:21;27.97;;;11.70;;
21438;SDS011;10880;50.302;18.736;2022-12-11T01:06:48;25.07;;;10.50;;
21438;SDS011;10880;50.302;18.736;2022-12-11T01:09:14;27.40;;;10.63;;
21438;SDS011;10880;50.302;18.736;2022-12-11T01:11:59;19.20;;;8.43;;
21438;SDS011;10880;50.302;18.736;2022-12-11T01:14:25;23.87;;;9.70;;
21438;SDS011;10880;50.302;18.736;2022-12-11T01:16:52;21.70;;;9.20;;
21438;SDS011;10880;50.302;18.736;2022-12-11T01:19:18;31.30;;;12.60;;
21438;SDS011;10880;50.302;18.736;2022-12-11T01:21:45;26.33;;;10.80;;
21438;SDS011;10880;50.302;18.736;2022-12-11T01:24:11;26.93;;;10.97;;
21438;SDS011;10880;50.302;18.736;2022-12-11T01:26:37;31.57;;;11.73;;
21438;SDS011;10880;50.302;18.736;2022-12-11T01:29:04;22.80;;;9.87;;
21438;SDS011;10880;50.302;18.736;2022-12-11T01:31:30;22.43;;;9.70;;
21438;SDS011;10880;50.302;18.736;2022-12-11T01:33:58;23.40;;;10.27;;
21438;SDS011;10880;50.302;18.736;2022-12-11T01:36:24;19.63;;;8.67;;
21438;SDS011;10880;50.302;18.736;2022-12-11T01:38:51;24.47;;;10.23;;
21438;SDS011;10880;50.302;18.736;2022-12-11T01:41:19;22.00;;;9.20;;
21438;SDS011;10880;50.302;18.736;2022-12-11T01:44:03;27.13;;;10.53;;
21438;SDS011;10880;50.302;18.736;2022-12-11T01:46:52;19.70;;;8.27;;
21438;SDS011;10880;50.302;18.736;2022-12-11T01:49:20;17.33;;;8.90;;
21438;SDS011;10880;50.302;18.736;2022-12-11T01:51:54;17.13;;;7.80;;
21438;SDS011;10880;50.302;18.736;2022-12-11T01:54:31;22.83;;;10.60;;
21438;SDS011;10880;50.302;18.736;2022-12-11T01:56:59;20.37;;;9.73;;
21438;SDS011;10880;50.302;18.736;2022-12-11T01:59:32;20.83;;;9.47;;
21438;SDS011;10880;50.302;18.736;2022-12-11T02:04:35;19.83;;;9.13;;
21438;SDS011;10880;50.302;18.736;2022-12-11T02:07:03;14.37;;;7.60;;
21438;SDS011;10880;50.302;18.736;2022-12-11T02:09:32;23.57;;;10.40;;
21438;SDS011;10880;50.302;18.736;2022-12-11T02:19:49;26.70;;;10.57;;
21438;SDS011;10880;50.302;18.736;2022-12-11T02:27:49;22.33;;;9.93;;
21438;SDS011;10880;50.302;18.736;2022-12-11T02:30:36;20.70;;;9.10;;
21438;SDS011;10880;50.302;18.736;2022-12-11T02:33:05;24.03;;;10.03;;
21438;SDS011;10880;50.302;18.736;2022-12-11T02:35:33;25.53;;;9.83;;
21438;SDS011;10880;50.302;18.736;2022-12-11T02:38:05;19.20;;;8.37;;
21438;SDS011;10880;50.302;18.736;2022-12-11T02:40:38;22.57;;;9.13;;
21438;SDS011;10880;50.302;18.736;2022-12-11T02:43:07;20.97;;;8.90;;
21438;SDS011;10880;50.302;18.736;2022-12-11T02:45:38;20.43;;;8.30;;
21438;SDS011;10880;50.302;18.736;2022-12-11T02:48:07;16.93;;;7.87;;
21438;SDS011;10880;50.302;18.736;2022-12-11T02:50:36;21.70;;;9.20;;
21438;SDS011;10880;50.302;18.736;2022-12-11T02:53:07;25.33;;;10.13;;
21438;SDS011;10880;50.302;18.736;2022-12-11T02:55:37;29.90;;;11.67;;
21438;SDS011;10880;50.302;18.736;2022-12-11T02:58:08;29.00;;;11.47;;
21438;SDS011;10880;50.302;18.736;2022-12-11T03:00:41;31.00;;;11.80;;
21438;SDS011;10880;50.302;18.736;2022-12-11T03:03:10;27.67;;;11.57;;
21438;SDS011;10880;50.302;18.736;2022-12-11T03:05:37;28.10;;;11.30;;
21438;SDS011;10880;50.302;18.736;2022-12-11T03:08:04;25.00;;;9.83;;
21438;SDS011;10880;50.302;18.736;2022-12-11T03:10:30;31.27;;;11.40;;
21438;SDS011;10880;50.302;18.736;2022-12-11T03:12:57;30.27;;;11.80;;
21438;SDS011;10880;50.302;18.736;2022-12-11T03:15:33;23.77;;;9.40;;
21438;SDS011;10880;50.302;18.736;2022-12-11T03:18:41;27.67;;;10.37;;
21438;SDS011;10880;50.302;18.736;2022-12-11T03:26:43;26.73;;;10.33;;
21438;SDS011;10880;50.302;18.736;2022-12-11T03:29:36;23.00;;;9.73;;
21438;SDS011;10880;50.302;18.736;2022-12-11T03:32:08;23.03;;;9.47;;
21438;SDS011;10880;50.302;18.736;2022-12-11T03:34:43;20.93;;;9.37;;
21438;SDS011;10880;50.302;18.736;2022-12-11T03:37:14;24.80;;;10.17;;
21438;SDS011;10880;50.302;18.736;2022-12-11T03:39:42;20.83;;;9.87;;
21438;SDS011;10880;50.302;18.736;2022-12-11T03:42:14;28.23;;;11.27;;
21438;SDS011;10880;50.302;18.736;2022-12-11T03:44:45;25.83;;;11.07;;
21438;SDS011;10880;50.302;18.736;2022-12-11T03:47:15;20.93;;;9.53;;
21438;SDS011;10880;50.302;18.736;2022-12-11T03:49:44;20.33;;;9.17;;
21438;SDS011;10880;50.302;18.736;2022-12-11T03:52:13;30.10;;;12.53;;
21438;SDS011;10880;50.302;18.736;2022-12-11T03:54:42;35.90;;;13.43;;
21438;SDS011;10880;50.302;18.736;2022-12-11T03:57:15;27.93;;;11.70;;
21438;SDS011;10880;50.302;18.736;2022-12-11T03:59:46;30.13;;;11.20;;
21438;SDS011;10880;50.302;18.736;2022-12-11T04:02:13;23.63;;;10.73;;
21438;SDS011;10880;50.302;18.736;2022-12-11T04:04:39;26.67;;;11.37;;
21438;SDS011;10880;50.302;18.736;2022-12-11T04:07:07;27.30;;;9.97;;
21438;SDS011;10880;50.302;18.736;2022-12-11T04:09:34;33.27;;;11.57;;
21438;SDS011;10880;50.302;18.736;2022-12-11T04:12:00;31.63;;;12.47;;
21438;SDS011;10880;50.302;18.736;2022-12-11T04:14:27;31.67;;;12.87;;
21438;SDS011;10880;50.302;18.736;2022-12-11T04:17:12;29.50;;;11.73;;
21438;SDS011;10880;50.302;18.736;2022-12-11T04:19:58;28.23;;;11.77;;
21438;SDS011;10880;50.302;18.736;2022-12-11T04:22:43;30.27;;;11.87;;
21438;SDS011;10880;50.302;18.736;2022-12-11T04:25:39;30.20;;;12.53;;
21438;SDS011;10880;50.302;18.736;2022-12-11T04:28:05;29.57;;;12.30;;
21438;SDS011;10880;50.302;18.736;2022-12-11T04:30:32;26.87;;;11.10;;
21438;SDS011;10880;50.302;18.736;2022-12-11T04:32:58;22.60;;;10.07;;
21438;SDS011;10880;50.302;18.736;2022-12-11T04:35:24;23.03;;;9.90;;
21438;SDS011;10880;50.302;18.736;2022-12-11T04:37:51;24.80;;;10.40;;
21438;SDS011;10880;50.302;18.736;2022-12-11T04:40:18;23.70;;;10.00;;
21438;SDS011;10880;50.302;18.736;2022-12-11T04:42:45;30.00;;;12.50;;
21438;SDS011;10880;50.302;18.736;2022-12-11T04:45:11;27.83;;;11.90;;
21438;SDS011;10880;50.302;18.736;2022-12-11T04:47:39;28.67;;;12.03;;
21438;SDS011;10880;50.302;18.736;2022-12-11T04:50:08;27.33;;;11.93;;
21438;SDS011;10880;50.302;18.736;2022-12-11T04:52:36;32.87;;;13.00;;
21438;SDS011;10880;50.302;18.736;2022-12-11T04:55:03;27.77;;;11.67;;
21438;SDS011;10880;50.302;18.736;2022-12-11T04:57:31;27.90;;;12.77;;
21438;SDS011;10880;50.302;18.736;2022-12-11T04:59:57;22.77;;;10.07;;
21438;SDS011;10880;50.302;18.736;2022-12-11T05:02:25;28.13;;;12.30;;
21438;SDS011;10880;50.302;18.736;2022-12-11T05:04:51;24.23;;;10.10;;
21438;SDS011;10880;50.302;18.736;2022-12-11T05:07:18;24.13;;;10.80;;
21438;SDS011;10880;50.302;18.736;2022-12-11T05:09:44;25.57;;;9.90;;
21438;SDS011;10880;50.302;18.736;2022-12-11T05:12:11;25.07;;;10.77;;
21438;SDS011;10880;50.302;18.736;2022-12-11T05:14:37;26.47;;;11.57;;
21438;SDS011;10880;50.302;18.736;2022-12-11T05:17:04;27.13;;;11.40;;
21438;SDS011;10880;50.302;18.736;2022-12-11T05:19:30;24.40;;;11.23;;
21438;SDS011;10880;50.302;18.736;2022-12-11T05:21:56;28.13;;;12.40;;
21438;SDS011;10880;50.302;18.736;2022-12-11T05:24:23;21.80;;;10.20;;
21438;SDS011;10880;50.302;18.736;2022-12-11T05:26:49;28.50;;;12.13;;
21438;SDS011;10880;50.302;18.736;2022-12-11T05:29:16;29.03;;;12.57;;
21438;SDS011;10880;50.302;18.736;2022-12-11T05:31:42;25.13;;;11.13;;
21438;SDS011;10880;50.302;18.736;2022-12-11T05:34:08;25.30;;;10.77;;
21438;SDS011;10880;50.302;18.736;2022-12-11T05:36:35;25.30;;;11.33;;
21438;SDS011;10880;50.302;18.736;2022-12-11T05:39:02;31.57;;;13.10;;
21438;SDS011;10880;50.302;18.736;2022-12-11T05:41:30;31.67;;;13.30;;
21438;SDS011;10880;50.302;18.736;2022-12-11T05:43:57;32.00;;;13.43;;
21438;SDS011;10880;50.302;18.736;2022-12-11T05:46:24;33.37;;;13.30;;
21438;SDS011;10880;50.302;18.736;2022-12-11T05:48:54;33.70;;;14.23;;
21438;SDS011;10880;50.302;18.736;2022-12-11T05:51:22;35.60;;;14.77;;
21438;SDS011;10880;50.302;18.736;2022-12-11T05:53:49;28.67;;;12.57;;
21438;SDS011;10880;50.302;18.736;2022-12-11T05:58:43;29.97;;;13.23;;
21438;SDS011;10880;50.302;18.736;2022-12-11T06:01:13;26.73;;;11.33;;
21438;SDS011;10880;50.302;18.736;2022-12-11T06:03:44;25.97;;;11.73;;
21438;SDS011;10880;50.302;18.736;2022-12-11T06:06:10;25.43;;;11.77;;
21438;SDS011;10880;50.302;18.736;2022-12-11T06:08:37;20.57;;;9.87;;
21438;SDS011;10880;50.302;18.736;2022-12-11T06:11:04;21.67;;;10.40;;
21438;SDS011;10880;50.302;18.736;2022-12-11T06:13:31;21.73;;;9.20;;
21438;SDS011;10880;50.302;18.736;2022-12-11T06:15:59;25.53;;;11.33;;
21438;SDS011;10880;50.302;18.736;2022-12-11T06:18:27;23.33;;;11.20;;
21438;SDS011;10880;50.302;18.736;2022-12-11T06:20:53;25.90;;;11.37;;
21438;SDS011;10880;50.302;18.736;2022-12-11T06:23:20;25.67;;;11.60;;
21438;SDS011;10880;50.302;18.736;2022-12-11T06:25:46;22.60;;;10.70;;
21438;SDS011;10880;50.302;18.736;2022-12-11T06:28:13;19.73;;;10.40;;
21438;SDS011;10880;50.302;18.736;2022-12-11T06:30:39;18.37;;;9.17;;
21438;SDS011;10880;50.302;18.736;2022-12-11T06:33:06;24.27;;;10.23;;
21438;SDS011;10880;50.302;18.736;2022-12-11T06:35:32;25.57;;;10.60;;
21438;SDS011;10880;50.302;18.736;2022-12-11T06:37:59;24.80;;;11.77;;
21438;SDS011;10880;50.302;18.736;2022-12-11T06:40:26;24.00;;;11.20;;
21438;SDS011;10880;50.302;18.736;2022-12-11T06:42:53;25.87;;;9.87;;
21438;SDS011;10880;50.302;18.736;2022-12-11T06:45:19;28.70;;;10.93;;
21438;SDS011;10880;50.302;18.736;2022-12-11T06:47:46;31.27;;;11.77;;
21438;SDS011;10880;50.302;18.736;2022-12-11T06:50:12;32.97;;;11.73;;
21438;SDS011;10880;50.302;18.736;2022-12-11T06:52:38;27.60;;;11.33;;
21438;SDS011;10880;50.302;18.736;2022-12-11T06:55:05;26.53;;;10.30;;
21438;SDS011;10880;50.302;18.736;2022-12-11T06:57:32;27.97;;;11.10;;
21438;SDS011;10880;50.302;18.736;2022-12-11T06:59:59;27.67;;;10.77;;
21438;SDS011;10880;50.302;18.736;2022-12-11T07:02:26;27.07;;;12.43;;
21438;SDS011;10880;50.302;18.736;2022-12-11T07:04:52;25.67;;;11.67;;
21438;SDS011;10880;50.302;18.736;2022-12-11T07:07:19;25.07;;;10.97;;
21438;SDS011;10880;50.302;18.736;2022-12-11T07:09:45;31.70;;;12.97;;
21438;SDS011;10880;50.302;18.736;2022-12-11T07:12:12;28.40;;;12.63;;
21438;SDS011;10880;50.302;18.736;2022-12-11T07:14:39;28.40;;;12.20;;
21438;SDS011;10880;50.302;18.736;2022-12-11T07:17:05;51.47;;;16.10;;
21438;SDS011;10880;50.302;18.736;2022-12-11T07:19:32;74.37;;;23.90;;
21438;SDS011;10880;50.302;18.736;2022-12-11T07:21:58;42.60;;;16.20;;
21438;SDS011;10880;50.302;18.736;2022-12-11T07:24:25;31.57;;;13.97;;
21438;SDS011;10880;50.302;18.736;2022-12-11T07:26:51;28.17;;;11.97;;
21438;SDS011;10880;50.302;18.736;2022-12-11T07:29:18;28.23;;;12.33;;
21438;SDS011;10880;50.302;18.736;2022-12-11T07:31:44;27.00;;;12.07;;
21438;SDS011;10880;50.302;18.736;2022-12-11T07:34:11;30.53;;;13.27;;
21438;SDS011;10880;50.302;18.736;2022-12-11T07:36:38;31.00;;;12.80;;
21438;SDS011;10880;50.302;18.736;2022-12-11T07:39:05;28.53;;;12.00;;
21438;SDS011;10880;50.302;18.736;2022-12-11T07:41:32;26.20;;;11.50;;
21438;SDS011;10880;50.302;18.736;2022-12-11T07:43:59;27.10;;;11.67;;
21438;SDS011;10880;50.302;18.736;2022-12-11T07:46:26;28.60;;;11.80;;
21438;SDS011;10880;50.302;18.736;2022-12-11T07:48:55;31.20;;;13.90;;
21438;SDS011;10880;50.302;18.736;2022-12-11T07:51:31;26.97;;;12.00;;
21438;SDS011;10880;50.302;18.736;2022-12-11T07:54:03;26.87;;;11.97;;
21438;SDS011;10880;50.302;18.736;2022-12-11T07:56:32;31.83;;;13.73;;
21438;SDS011;10880;50.302;18.736;2022-12-11T07:58:59;27.47;;;12.40;;
21438;SDS011;10880;50.302;18.736;2022-12-11T08:01:27;29.03;;;12.60;;
21438;SDS011;10880;50.302;18.736;2022-12-11T08:03:55;27.00;;;12.47;;
21438;SDS011;10880;50.302;18.736;2022-12-11T08:06:26;25.63;;;12.30;;
21438;SDS011;10880;50.302;18.736;2022-12-11T08:08:55;27.40;;;12.37;;
21438;SDS011;10880;50.302;18.736;2022-12-11T08:11:23;27.27;;;11.87;;
21438;SDS011;10880;50.302;18.736;2022-12-11T08:13:50;29.23;;;12.10;;
21438;SDS011;10880;50.302;18.736;2022-12-11T08:16:17;28.90;;;11.57;;
21438;SDS011;10880;50.302;18.736;2022-12-11T08:18:45;25.40;;;11.60;;
21438;SDS011;10880;50.302;18.736;2022-12-11T08:21:14;24.13;;;11.17;;
21438;SDS011;10880;50.302;18.736;2022-12-11T08:23:42;25.40;;;11.77;;
21438;SDS011;10880;50.302;18.736;2022-12-11T08:26:16;24.90;;;10.63;;
21438;SDS011;10880;50.302;18.736;2022-12-11T08:28:45;29.83;;;11.60;;
21438;SDS011;10880;50.302;18.736;2022-12-11T08:31:12;31.50;;;13.50;;
21438;SDS011;10880;50.302;18.736;2022-12-11T08:33:40;48.80;;;19.27;;
21438;SDS011;10880;50.302;18.736;2022-12-11T08:36:08;33.30;;;13.67;;
21438;SDS011;10880;50.302;18.736;2022-12-11T08:38:36;25.73;;;11.23;;
21438;SDS011;10880;50.302;18.736;2022-12-11T08:41:07;21.97;;;10.20;;
21438;SDS011;10880;50.302;18.736;2022-12-11T08:43:53;26.93;;;11.37;;
21438;SDS011;10880;50.302;18.736;2022-12-11T08:46:21;21.07;;;10.13;;
21438;SDS011;10880;50.302;18.736;2022-12-11T08:48:48;23.70;;;10.83;;
21438;SDS011;10880;50.302;18.736;2022-12-11T08:51:16;25.33;;;11.57;;
21438;SDS011;10880;50.302;18.736;2022-12-11T08:53:45;21.97;;;10.67;;
21438;SDS011;10880;50.302;18.736;2022-12-11T08:56:12;25.23;;;11.30;;
21438;SDS011;10880;50.302;18.736;2022-12-11T08:58:41;23.47;;;11.07;;
21438;SDS011;10880;50.302;18.736;2022-12-11T09:01:10;24.73;;;11.23;;
21438;SDS011;10880;50.302;18.736;2022-12-11T09:03:38;25.47;;;10.73;;
21438;SDS011;10880;50.302;18.736;2022-12-11T09:06:06;24.33;;;10.57;;
21438;SDS011;10880;50.302;18.736;2022-12-11T09:08:36;24.97;;;11.37;;
21438;SDS011;10880;50.302;18.736;2022-12-11T09:11:06;22.70;;;10.23;;
21438;SDS011;10880;50.302;18.736;2022-12-11T09:13:35;26.07;;;12.30;;
21438;SDS011;10880;50.302;18.736;2022-12-11T09:16:06;23.10;;;10.73;;
21438;SDS011;10880;50.302;18.736;2022-12-11T09:18:35;22.40;;;11.33;;
21438;SDS011;10880;50.302;18.736;2022-12-11T09:21:03;30.37;;;13.80;;
21438;SDS011;10880;50.302;18.736;2022-12-11T09:23:32;27.87;;;12.77;;
21438;SDS011;10880;50.302;18.736;2022-12-11T09:25:58;20.87;;;10.07;;
21438;SDS011;10880;50.302;18.736;2022-12-11T09:28:25;24.93;;;11.30;;
21438;SDS011;10880;50.302;18.736;2022-12-11T09:30:52;25.53;;;12.40;;
21438;SDS011;10880;50.302;18.736;2022-12-11T09:33:18;27.80;;;13.20;;
21438;SDS011;10880;50.302;18.736;2022-12-11T09:35:45;23.90;;;11.20;;
21438;SDS011;10880;50.302;18.736;2022-12-11T09:38:11;27.77;;;12.70;;
21438;SDS011;10880;50.302;18.736;2022-12-11T09:40:39;28.77;;;13.70;;
21438;SDS011;10880;50.302;18.736;2022-12-11T09:46:15;27.70;;;12.47;;
21438;SDS011;10880;50.302;18.736;2022-12-11T09:48:43;24.90;;;11.80;;
21438;SDS011;10880;50.302;18.736;2022-12-11T09:51:20;27.67;;;13.60;;
21438;SDS011;10880;50.302;18.736;2022-12-11T09:53:53;25.83;;;13.00;;
21438;SDS011;10880;50.302;18.736;2022-12-11T09:56:24;27.93;;;13.10;;
21438;SDS011;10880;50.302;18.736;2022-12-11T09:59:27;26.13;;;11.57;;
21438;SDS011;10880;50.302;18.736;2022-12-11T10:02:22;29.17;;;13.43;;
21438;SDS011;10880;50.302;18.736;2022-12-11T10:05:21;30.20;;;13.40;;
21438;SDS011;10880;50.302;18.736;2022-12-11T10:13:40;28.93;;;13.10;;
21438;SDS011;10880;50.302;18.736;2022-12-11T10:16:14;27.50;;;13.37;;
21438;SDS011;10880;50.302;18.736;2022-12-11T10:18:47;26.83;;;12.97;;
21438;SDS011;10880;50.302;18.736;2022-12-11T10:21:14;27.53;;;12.47;;
21438;SDS011;10880;50.302;18.736;2022-12-11T10:26:19;30.23;;;13.07;;
21438;SDS011;10880;50.302;18.736;2022-12-11T10:28:48;29.40;;;12.70;;
21438;SDS011;10880;50.302;18.736;2022-12-11T10:34:00;23.33;;;11.30;;
21438;SDS011;10880;50.302;18.736;2022-12-11T10:36:37;22.70;;;10.93;;
21438;SDS011;10880;50.302;18.736;2022-12-11T10:39:16;25.90;;;11.20;;
21438;SDS011;10880;50.302;18.736;2022-12-11T10:41:45;31.27;;;14.03;;
21438;SDS011;10880;50.302;18.736;2022-12-11T10:44:18;26.33;;;11.47;;
21438;SDS011;10880;50.302;18.736;2022-12-11T10:46:47;28.50;;;13.13;;
21438;SDS011;10880;50.302;18.736;2022-12-11T10:49:27;29.97;;;14.73;;
21438;SDS011;10880;50.302;18.736;2022-12-11T10:51:55;28.57;;;13.27;;
21438;SDS011;10880;50.302;18.736;2022-12-11T10:54:34;28.27;;;12.33;;
21438;SDS011;10880;50.302;18.736;2022-12-11T10:57:13;26.73;;;12.93;;
21438;SDS011;10880;50.302;18.736;2022-12-11T10:59:44;26.83;;;12.97;;
21438;SDS011;10880;50.302;18.736;2022-12-11T11:02:20;28.00;;;13.07;;
21438;SDS011;10880;50.302;18.736;2022-12-11T11:05:24;21.33;;;11.00;;
21438;SDS011;10880;50.302;18.736;2022-12-11T11:08:09;27.33;;;12.37;;
21438;SDS011;10880;50.302;18.736;2022-12-11T11:10:52;23.70;;;11.53;;
21438;SDS011;10880;50.302;18.736;2022-12-11T11:13:20;27.30;;;11.37;;
21438;SDS011;10880;50.302;18.736;2022-12-11T11:15:48;22.73;;;10.43;;
21438;SDS011;10880;50.302;18.736;2022-12-11T11:18:24;24.33;;;11.30;;
21438;SDS011;10880;50.302;18.736;2022-12-11T11:20:52;24.67;;;11.67;;
21438;SDS011;10880;50.302;18.736;2022-12-11T11:23:20;24.00;;;10.63;;
21438;SDS011;10880;50.302;18.736;2022-12-11T11:25:48;24.73;;;11.57;;
21438;SDS011;10880;50.302;18.736;2022-12-11T11:32:19;22.40;;;10.83;;
21438;SDS011;10880;50.302;18.736;2022-12-11T11:34:50;25.30;;;11.43;;
21438;SDS011;10880;50.302;18.736;2022-12-11T11:37:24;30.73;;;12.30;;
21438;SDS011;10880;50.302;18.736;2022-12-11T11:40:02;29.53;;;12.80;;
21438;SDS011;10880;50.302;18.736;2022-12-11T11:42:56;28.10;;;13.00;;
21438;SDS011;10880;50.302;18.736;2022-12-11T11:45:45;30.27;;;14.17;;
21438;SDS011;10880;50.302;18.736;2022-12-11T11:48:30;33.23;;;13.80;;
21438;SDS011;10880;50.302;18.736;2022-12-11T11:51:22;30.03;;;13.13;;
21438;SDS011;10880;50.302;18.736;2022-12-11T11:53:56;25.00;;;11.93;;
21438;SDS011;10880;50.302;18.736;2022-12-11T11:56:27;25.97;;;11.70;;
21438;SDS011;10880;50.302;18.736;2022-12-11T12:01:45;34.97;;;14.53;;
21438;SDS011;10880;50.302;18.736;2022-12-11T12:04:12;42.17;;;15.80;;
21438;SDS011;10880;50.302;18.736;2022-12-11T12:12:01;37.50;;;15.47;;
21438;SDS011;10880;50.302;18.736;2022-12-11T12:15:14;42.27;;;16.73;;
21438;SDS011;10880;50.302;18.736;2022-12-11T12:17:53;31.43;;;13.27;;
21438;SDS011;10880;50.302;18.736;2022-12-11T12:20:46;29.33;;;11.43;;
21438;SDS011;10880;50.302;18.736;2022-12-11T12:23:32;23.27;;;10.73;;
21438;SDS011;10880;50.302;18.736;2022-12-11T12:36:48;24.57;;;11.77;;
21438;SDS011;10880;50.302;18.736;2022-12-11T12:39:32;25.27;;;11.40;;
21438;SDS011;10880;50.302;18.736;2022-12-11T12:45:03;22.13;;;10.47;;
21438;SDS011;10880;50.302;18.736;2022-12-11T12:47:42;23.77;;;11.30;;
21438;SDS011;10880;50.302;18.736;2022-12-11T12:50:14;21.90;;;10.23;;
21438;SDS011;10880;50.302;18.736;2022-12-11T12:52:43;31.47;;;12.10;;
21438;SDS011;10880;50.302;18.736;2022-12-11T12:57:50;19.70;;;10.10;;
21438;SDS011;10880;50.302;18.736;2022-12-11T13:00:30;24.77;;;11.97;;
21438;SDS011;10880;50.302;18.736;2022-12-11T13:03:16;24.90;;;11.40;;
21438;SDS011;10880;50.302;18.736;2022-12-11T13:05:55;24.97;;;11.30;;
21438;SDS011;10880;50.302;18.736;2022-12-11T13:08:25;28.20;;;12.07;;
21438;SDS011;10880;50.302;18.736;2022-12-11T13:11:00;23.27;;;11.27;;
21438;SDS011;10880;50.302;18.736;2022-12-11T13:13:42;26.17;;;12.97;;
21438;SDS011;10880;50.302;18.736;2022-12-11T13:18:42;26.60;;;12.47;;
21438;SDS011;10880;50.302;18.736;2022-12-11T13:21:24;21.43;;;10.80;;
21438;SDS011;10880;50.302;18.736;2022-12-11T13:26:39;20.53;;;10.27;;
21438;SDS011;10880;50.302;18.736;2022-12-11T13:30:02;19.83;;;10.47;;
21438;SDS011;10880;50.302;18.736;2022-12-11T13:31:59;21.57;;;10.67;;
21438;SDS011;10880;50.302;18.736;2022-12-11T13:34:30;18.47;;;9.00;;
21438;SDS011;10880;50.302;18.736;2022-12-11T13:36:58;18.43;;;9.23;;
21438;SDS011;10880;50.302;18.736;2022-12-11T13:39:29;16.90;;;8.80;;
21438;SDS011;10880;50.302;18.736;2022-12-11T13:42:06;24.57;;;11.93;;
21438;SDS011;10880;50.302;18.736;2022-12-11T13:44:49;26.53;;;11.83;;
21438;SDS011;10880;50.302;18.736;2022-12-11T13:47:17;27.30;;;12.67;;
21438;SDS011;10880;50.302;18.736;2022-12-11T13:49:45;28.90;;;13.33;;
21438;SDS011;10880;50.302;18.736;2022-12-11T13:52:22;34.43;;;14.87;;
21438;SDS011;10880;50.302;18.736;2022-12-11T13:54:53;32.73;;;14.77;;
21438;SDS011;10880;50.302;18.736;2022-12-11T13:57:24;33.87;;;14.03;;
21438;SDS011;10880;50.302;18.736;2022-12-11T13:59:53;31.60;;;15.47;;
21438;SDS011;10880;50.302;18.736;2022-12-11T14:02:32;27.13;;;13.40;;
21438;SDS011;10880;50.302;18.736;2022-12-11T14:05:09;20.03;;;10.67;;
21438;SDS011;10880;50.302;18.736;2022-12-11T14:07:40;18.47;;;9.77;;
21438;SDS011;10880;50.302;18.736;2022-12-11T14:10:15;21.77;;;10.97;;
21438;SDS011;10880;50.302;18.736;2022-12-11T14:12:58;20.03;;;9.67;;
21438;SDS011;10880;50.302;18.736;2022-12-11T14:15:31;21.27;;;10.00;;
21438;SDS011;10880;50.302;18.736;2022-12-11T14:17:58;20.40;;;10.37;;
21438;SDS011;10880;50.302;18.736;2022-12-11T14:20:29;17.27;;;9.20;;
21438;SDS011;10880;50.302;18.736;2022-12-11T14:23:06;13.63;;;7.57;;
21438;SDS011;10880;50.302;18.736;2022-12-11T14:25:51;16.47;;;7.87;;
21438;SDS011;10880;50.302;18.736;2022-12-11T14:28:19;18.83;;;9.10;;
21438;SDS011;10880;50.302;18.736;2022-12-11T14:30:50;15.57;;;8.27;;
21438;SDS011;10880;50.302;18.736;2022-12-11T14:33:18;15.93;;;8.50;;
21438;SDS011;10880;50.302;18.736;2022-12-11T14:35:48;15.87;;;8.07;;
21438;SDS011;10880;50.302;18.736;2022-12-11T14:38:19;13.80;;;7.33;;
21438;SDS011;10880;50.302;18.736;2022-12-11T14:40:55;18.40;;;8.70;;
21438;SDS011;10880;50.302;18.736;2022-12-11T14:43:41;18.53;;;9.10;;
21438;SDS011;10880;50.302;18.736;2022-12-11T14:46:21;19.03;;;9.43;;
21438;SDS011;10880;50.302;18.736;2022-12-11T14:48:57;20.13;;;9.83;;
21438;SDS011;10880;50.302;18.736;2022-12-11T14:51:34;19.90;;;10.23;;
21438;SDS011;10880;50.302;18.736;2022-12-11T14:54:04;19.03;;;9.57;;
21438;SDS011;10880;50.302;18.736;2022-12-11T14:56:33;18.60;;;8.73;;
21438;SDS011;10880;50.302;18.736;2022-12-11T14:59:01;16.17;;;8.20;;
21438;SDS011;10880;50.302;18.736;2022-12-11T15:01:32;14.67;;;7.73;;
21438;SDS011;10880;50.302;18.736;2022-12-11T15:06:48;13.37;;;6.43;;
21438;SDS011;10880;50.302;18.736;2022-12-11T15:11:51;22.60;;;10.27;;
21438;SDS011;10880;50.302;18.736;2022-12-11T15:14:20;18.77;;;9.60;;
21438;SDS011;10880;50.302;18.736;2022-12-11T15:16:48;16.20;;;8.43;;
21438;SDS011;10880;50.302;18.736;2022-12-11T15:19:24;21.87;;;10.73;;
21438;SDS011;10880;50.302;18.736;2022-12-11T15:21:59;19.57;;;9.83;;
21438;SDS011;10880;50.302;18.736;2022-12-11T15:24:31;18.13;;;9.00;;
21438;SDS011;10880;50.302;18.736;2022-12-11T15:26:59;14.33;;;7.33;;
21438;SDS011;10880;50.302;18.736;2022-12-11T15:34:45;19.07;;;8.93;;
21438;SDS011;10880;50.302;18.736;2022-12-11T15:39:49;23.90;;;11.30;;
21438;SDS011;10880;50.302;18.736;2022-12-11T15:42:23;27.90;;;12.73;;
21438;SDS011;10880;50.302;18.736;2022-12-11T15:44:52;29.80;;;13.53;;
21438;SDS011;10880;50.302;18.736;2022-12-11T15:47:22;25.93;;;10.73;;
21438;SDS011;10880;50.302;18.736;2022-12-11T15:49:52;26.57;;;11.47;;
21438;SDS011;10880;50.302;18.736;2022-12-11T15:52:24;26.83;;;11.60;;
21438;SDS011;10880;50.302;18.736;2022-12-11T15:54:51;25.23;;;11.70;;
21438;SDS011;10880;50.302;18.736;2022-12-11T15:57:19;25.73;;;11.27;;